createdAt,value
2023-08-23T00:01:41.667Z,101618.38
2023-08-23T00:04:09.296Z,101609.00
2023-08-23T00:06:36.610Z,101614.03
2023-08-23T00:09:08.741Z,101609.03
2023-08-23T00:11:36.153Z,101609.91
2023-08-23T00:14:03.611Z,101601.84
2023-08-23T00:19:25.401Z,101612.34
2023-08-23T00:21:54.003Z,101611.69
2023-08-23T00:24:21.512Z,101616.72
2023-08-23T00:26:49.788Z,101619.66
2023-08-23T00:29:17.096Z,101613.94
2023-08-23T00:31:44.421Z,101618.16
2023-08-23T00:34:13.230Z,101626.38
2023-08-23T00:36:42.117Z,101614.41
2023-08-23T00:39:09.342Z,101614.78
2023-08-23T00:41:36.573Z,101616.09
2023-08-23T00:44:07.537Z,101621.25
2023-08-23T00:46:35.380Z,101617.72
2023-08-23T00:49:02.799Z,101613.03
2023-08-23T00:54:23.570Z,101615.88
2023-08-23T00:56:57.508Z,101621.66
2023-08-23T00:59:24.595Z,101619.66
2023-08-23T01:01:52.403Z,101620.53
2023-08-23T01:04:19.681Z,101617.47
2023-08-23T01:06:55.376Z,101625.34
2023-08-23T01:09:34.958Z,101624.66
2023-08-23T01:12:09.846Z,101624.13
2023-08-23T01:14:49.324Z,101624.28
2023-08-23T01:17:19.321Z,101624.97
2023-08-23T01:19:48.152Z,101626.19
2023-08-23T01:26:45.882Z,101630.84
2023-08-23T01:29:46.209Z,101631.09
2023-08-23T01:32:26.956Z,101630.63
2023-08-23T01:34:57.731Z,101620.41
2023-08-23T01:37:27.378Z,101624.97
2023-08-23T01:39:55.851Z,101622.72
2023-08-23T01:42:23.512Z,101633.56
2023-08-23T01:44:52.147Z,101627.16
2023-08-23T01:47:19.437Z,101629.16
2023-08-23T01:49:49.813Z,101624.19
2023-08-23T01:52:17.149Z,101619.03
2023-08-23T01:54:44.448Z,101618.56
2023-08-23T02:05:49.128Z,101633.56
2023-08-23T02:08:16.518Z,101632.22
2023-08-23T02:10:43.781Z,101637.91
2023-08-23T02:13:11.027Z,101638.09
2023-08-23T02:15:39.801Z,101633.25
2023-08-23T02:18:07.186Z,101630.94
2023-08-23T02:20:34.507Z,101619.09
2023-08-23T02:23:04.784Z,101624.75
2023-08-23T02:25:32.009Z,101618.47
2023-08-23T02:27:59.284Z,101619.94
2023-08-23T02:30:26.612Z,101619.72
2023-08-23T02:32:55.285Z,101616.94
2023-08-23T02:35:22.553Z,101614.13
2023-08-23T02:40:41.970Z,101612.13
2023-08-23T02:43:09.288Z,101617.06
2023-08-23T02:45:39.255Z,101607.38
2023-08-23T02:48:08.553Z,101612.56
2023-08-23T02:50:35.819Z,101604.53
2023-08-23T02:53:03.114Z,101602.84
2023-08-23T02:55:30.432Z,101612.50
2023-08-23T02:58:00.742Z,101601.63
2023-08-23T03:00:27.978Z,101597.28
2023-08-23T03:02:55.329Z,101605.47
2023-08-23T03:11:32.978Z,101609.84
2023-08-23T03:14:00.283Z,101613.38
2023-08-23T03:16:27.536Z,101609.69
2023-08-23T03:18:54.884Z,101603.50
2023-08-23T03:21:23.553Z,101611.50
2023-08-23T03:23:50.827Z,101610.66
2023-08-23T03:26:18.102Z,101610.34
2023-08-23T03:28:45.410Z,101611.81
2023-08-23T03:31:12.702Z,101616.53
2023-08-23T03:33:43.191Z,101607.69
2023-08-23T03:36:10.454Z,101616.53
2023-08-23T03:38:39.139Z,101611.97
2023-08-23T03:44:03.724Z,101614.16
2023-08-23T03:46:31.059Z,101611.59
2023-08-23T03:48:58.338Z,101606.63
2023-08-23T03:51:25.600Z,101608.88
2023-08-23T03:53:54.254Z,101611.75
2023-08-23T03:56:21.466Z,101615.16
2023-08-23T03:58:48.719Z,101622.44
2023-08-23T04:01:16.041Z,101616.72
2023-08-23T04:03:43.418Z,101617.16
2023-08-23T04:06:10.749Z,101620.78
2023-08-23T04:08:41.051Z,101621.09
2023-08-23T04:11:09.720Z,101619.00
2023-08-23T04:13:36.959Z,101618.00
2023-08-23T04:18:55.847Z,101612.19
2023-08-23T04:21:23.242Z,101606.34
2023-08-23T04:23:51.112Z,101608.06
2023-08-23T04:26:19.522Z,101614.28
2023-08-23T04:28:46.902Z,101614.66
2023-08-23T04:31:14.331Z,101609.31
2023-08-23T04:33:42.975Z,101613.81
2023-08-23T04:36:10.264Z,101610.69
2023-08-23T04:38:37.549Z,101607.63
2023-08-23T04:41:05.902Z,101611.75
2023-08-23T04:43:37.577Z,101608.22
2023-08-23T04:46:06.534Z,101604.97
2023-08-23T04:48:33.794Z,101607.00
2023-08-23T04:53:52.788Z,101603.34
2023-08-23T04:56:20.054Z,101607.00
2023-08-23T04:58:48.654Z,101603.69
2023-08-23T05:01:15.958Z,101613.75
2023-08-23T05:03:43.414Z,101616.09
2023-08-23T05:06:10.748Z,101612.81
2023-08-23T05:08:38.076Z,101610.81
2023-08-23T05:11:05.377Z,101609.88
2023-08-23T05:13:32.670Z,101612.28
2023-08-23T05:16:01.391Z,101615.97
2023-08-23T05:18:31.710Z,101611.81
2023-08-23T05:20:59.358Z,101613.34
2023-08-23T05:23:27.069Z,101614.72
2023-08-23T05:28:45.955Z,101619.44
2023-08-23T05:31:14.691Z,101603.91
2023-08-23T05:33:41.936Z,101618.81
2023-08-23T05:36:09.362Z,101623.19
2023-08-23T05:38:36.635Z,101619.50
2023-08-23T05:41:03.879Z,101619.84
2023-08-23T05:43:31.109Z,101621.16
2023-08-23T05:45:58.440Z,101621.34
2023-08-23T05:48:27.128Z,101622.34
2023-08-23T05:50:54.393Z,101626.16
2023-08-23T05:53:21.818Z,101620.63
2023-08-23T05:55:49.803Z,101618.59
2023-08-23T05:58:17.144Z,101624.13
2023-08-23T06:03:37.121Z,101617.22
2023-08-23T06:06:04.432Z,101619.63
2023-08-23T06:08:31.661Z,101615.19
2023-08-23T06:10:58.915Z,101612.47
2023-08-23T06:16:24.011Z,101616.50
2023-08-23T06:18:52.661Z,101608.59
2023-08-23T06:21:20.385Z,101620.13
2023-08-23T06:23:50.507Z,101613.50
2023-08-23T06:26:17.697Z,101614.75
2023-08-23T06:28:44.955Z,101617.38
2023-08-23T06:34:12.072Z,101622.81
2023-08-23T06:36:39.369Z,101619.41
2023-08-23T06:39:12.165Z,101617.44
2023-08-23T06:41:47.294Z,101617.97
2023-08-23T06:44:14.549Z,101622.16
2023-08-23T06:46:41.802Z,101623.81
2023-08-23T06:49:09.116Z,101620.91
2023-08-23T06:51:37.723Z,101621.97
2023-08-23T06:54:05.293Z,101622.78
2023-08-23T06:56:35.546Z,101622.38
2023-08-23T06:59:02.791Z,101618.53
2023-08-23T07:01:30.026Z,101619.94
2023-08-23T07:06:50.094Z,101626.16
2023-08-23T07:09:17.381Z,101622.97
2023-08-23T07:11:44.747Z,101628.78
2023-08-23T07:14:11.980Z,101629.28
2023-08-23T07:19:36.875Z,101623.31
2023-08-23T07:22:05.635Z,101625.13
2023-08-23T07:24:32.912Z,101632.69
2023-08-23T07:27:03.220Z,101635.25
2023-08-23T07:29:31.021Z,101635.94
2023-08-23T07:31:58.344Z,101637.16
2023-08-23T07:37:19.494Z,101637.97
2023-08-23T07:39:46.752Z,101630.81
2023-08-23T07:42:14.001Z,101635.22
2023-08-23T07:44:41.277Z,101639.78
2023-08-23T07:47:08.562Z,101640.38
2023-08-23T07:49:35.796Z,101642.09
2023-08-23T07:52:03.096Z,101640.88
2023-08-23T07:54:31.719Z,101644.25
2023-08-23T07:56:59.005Z,101645.19
2023-08-23T07:59:26.258Z,101654.31
2023-08-23T08:01:56.618Z,101650.81
2023-08-23T08:04:23.915Z,101647.03
2023-08-23T08:06:51.209Z,101656.25
2023-08-23T08:12:11.389Z,101648.78
2023-08-23T08:14:39.068Z,101648.38
2023-08-23T08:17:06.358Z,101652.78
2023-08-23T08:19:33.620Z,101651.34
2023-08-23T08:24:57.750Z,101646.19
2023-08-23T08:27:26.387Z,101646.63
2023-08-23T08:29:53.679Z,101643.25
2023-08-23T08:32:24.050Z,101632.41
2023-08-23T08:34:51.438Z,101640.72
2023-08-23T08:37:18.654Z,101635.69
2023-08-23T08:42:38.774Z,101642.66
2023-08-23T08:45:07.747Z,101647.63
2023-08-23T08:47:35.077Z,101648.03
2023-08-23T08:50:02.568Z,101649.00
2023-08-23T08:52:29.724Z,101644.50
2023-08-23T08:54:59.722Z,101647.69
2023-08-23T08:57:28.343Z,101649.31
2023-08-23T08:59:57.285Z,101651.56
2023-08-23T09:02:27.074Z,101651.16
2023-08-23T09:04:55.727Z,101638.97
2023-08-23T09:07:25.990Z,101642.91
2023-08-23T09:09:53.354Z,101642.75
2023-08-23T09:12:20.668Z,101643.84
2023-08-23T09:17:42.957Z,101640.88
2023-08-23T09:20:11.152Z,101644.47
2023-08-23T09:22:38.444Z,101649.13
2023-08-23T09:25:06.361Z,101645.97
2023-08-23T09:30:30.944Z,101644.56
2023-08-23T09:32:59.738Z,101650.19
2023-08-23T09:35:27.109Z,101642.34
2023-08-23T09:37:57.402Z,101651.19
2023-08-23T09:40:25.609Z,101652.03
2023-08-23T09:42:57.182Z,101650.66
2023-08-23T09:48:22.799Z,101647.28
2023-08-23T09:50:52.561Z,101649.09
2023-08-23T09:53:22.896Z,101653.25
2023-08-23T09:55:51.148Z,101651.13
2023-08-23T09:58:18.653Z,101648.94
2023-08-23T10:00:48.433Z,101651.19
2023-08-23T10:03:16.369Z,101647.75
2023-08-23T10:05:46.335Z,101649.25
2023-08-23T10:08:14.274Z,101651.38
2023-08-23T10:10:43.866Z,101649.97
2023-08-23T10:13:14.199Z,101651.34
2023-08-23T10:15:41.779Z,101646.75
2023-08-23T10:18:12.203Z,101654.47
2023-08-23T10:23:34.417Z,101659.88
2023-08-23T10:26:02.152Z,101660.75
2023-08-23T10:28:29.651Z,101648.56
2023-08-23T10:31:15.243Z,101638.75
2023-08-23T10:36:51.945Z,101645.06
2023-08-23T10:39:21.791Z,101632.34
2023-08-23T10:41:51.666Z,101642.75
2023-08-23T10:44:19.218Z,101637.44
2023-08-23T10:46:46.719Z,101633.69
2023-08-23T10:49:17.423Z,101634.81
2023-08-23T10:51:44.677Z,101631.53
2023-08-23T10:54:12.063Z,101630.38
2023-08-23T10:59:31.970Z,101628.47
2023-08-23T11:01:59.274Z,101623.50
2023-08-23T11:04:26.507Z,101621.31
2023-08-23T11:06:53.664Z,101626.97
2023-08-23T11:09:20.848Z,101631.16
2023-08-23T11:11:49.332Z,101634.72
2023-08-23T11:14:16.536Z,101631.75
2023-08-23T11:16:44.820Z,101631.00
2023-08-23T11:19:13.364Z,101618.78
2023-08-23T11:21:40.810Z,101619.91
2023-08-23T11:24:11.365Z,101616.88
2023-08-23T11:26:38.838Z,101603.34
2023-08-23T11:29:08.555Z,101606.50
2023-08-23T11:34:27.953Z,101598.13
2023-08-23T11:40:01.785Z,101600.63
2023-08-23T11:42:29.134Z,101602.75
2023-08-23T11:44:57.782Z,101596.06
2023-08-23T11:47:25.680Z,101600.50
2023-08-23T11:49:53.513Z,101599.34
2023-08-23T11:52:20.772Z,101581.16
2023-08-23T11:54:53.891Z,101583.91
2023-08-23T11:57:21.240Z,101586.06
2023-08-23T11:59:48.595Z,101584.13
2023-08-23T12:05:09.468Z,101594.00
2023-08-23T12:07:36.796Z,101580.44
2023-08-23T12:10:54.028Z,101575.34
2023-08-23T12:13:27.384Z,101583.91
2023-08-23T12:15:54.647Z,101583.06
2023-08-23T12:18:23.449Z,101578.06
2023-08-23T12:20:51.020Z,101574.47
2023-08-23T12:23:18.281Z,101572.59
2023-08-23T12:25:45.508Z,101571.50
2023-08-23T12:28:15.862Z,101564.16
2023-08-23T12:30:43.156Z,101566.03
2023-08-23T12:33:10.535Z,101559.34
2023-08-23T12:38:30.758Z,101563.94
2023-08-23T12:43:55.828Z,101563.47
2023-08-23T12:46:23.309Z,101564.06
2023-08-23T12:48:50.610Z,101566.31
2023-08-23T12:51:19.330Z,101569.09
2023-08-23T12:53:46.593Z,101560.03
2023-08-23T12:56:13.903Z,101557.59
2023-08-23T12:58:44.233Z,101556.66
2023-08-23T13:01:11.577Z,101559.41
2023-08-23T13:03:38.853Z,101555.59
2023-08-23T13:08:59.135Z,101546.25
2023-08-23T13:11:26.453Z,101554.09
2023-08-23T13:13:53.686Z,101553.94
2023-08-23T13:16:21.041Z,101554.13
2023-08-23T13:18:48.364Z,101550.13
2023-08-23T13:21:15.592Z,101542.97
2023-08-23T13:23:42.921Z,101548.22
2023-08-23T13:26:11.568Z,101546.97
2023-08-23T13:28:38.988Z,101544.59
2023-08-23T13:31:06.395Z,101545.03
2023-08-23T13:33:36.743Z,101544.56
2023-08-23T13:36:04.469Z,101531.72
2023-08-23T13:38:31.706Z,101540.50
2023-08-23T13:43:50.992Z,101533.00
2023-08-23T13:49:16.081Z,101527.63
2023-08-23T13:51:43.361Z,101522.88
2023-08-23T13:54:10.601Z,101531.31
2023-08-23T13:56:37.960Z,101519.75
2023-08-23T13:59:06.683Z,101523.13
2023-08-23T14:01:34.038Z,101523.47
2023-08-23T14:04:04.438Z,101532.53
2023-08-23T14:06:31.707Z,101517.22
2023-08-23T14:08:58.976Z,101522.13
2023-08-23T14:14:25.931Z,101518.09
2023-08-23T14:16:53.330Z,101531.78
2023-08-23T14:19:20.797Z,101525.03
2023-08-23T14:21:48.493Z,101519.00
2023-08-23T14:24:15.793Z,101518.72
2023-08-23T14:26:43.292Z,101514.94
2023-08-23T14:29:10.583Z,101519.06
2023-08-23T14:31:40.299Z,101507.50
2023-08-23T14:34:07.637Z,101519.91
2023-08-23T14:36:34.920Z,101516.13
2023-08-23T14:39:04.971Z,101518.06
2023-08-23T14:41:32.174Z,101502.56
2023-08-23T14:43:59.402Z,101502.31
2023-08-23T14:49:19.427Z,101518.19
2023-08-23T14:51:46.691Z,101510.84
2023-08-23T14:54:13.750Z,101511.16
2023-08-23T14:56:40.880Z,101511.94
2023-08-23T14:59:08.177Z,101509.06
2023-08-23T15:01:35.293Z,101511.97
2023-08-23T15:04:02.522Z,101507.53
2023-08-23T15:06:31.009Z,101514.94
2023-08-23T15:08:58.167Z,101511.84
2023-08-23T15:11:25.226Z,101514.19
2023-08-23T15:13:55.409Z,101503.44
2023-08-23T15:16:22.780Z,101510.28
2023-08-23T15:18:50.090Z,101506.53
2023-08-23T15:26:42.620Z,101514.09
2023-08-23T15:29:09.894Z,101512.22
2023-08-23T15:31:37.018Z,101510.00
2023-08-23T15:34:04.263Z,101505.66
2023-08-23T15:36:35.502Z,101513.59
2023-08-23T15:39:03.018Z,101513.59
2023-08-23T15:41:31.302Z,101510.22
2023-08-23T15:44:02.093Z,101507.72
2023-08-23T15:46:37.294Z,101523.09
2023-08-23T15:49:04.690Z,101516.59
2023-08-23T15:51:32.085Z,101513.28
2023-08-23T15:53:59.169Z,101514.94
2023-08-23T15:56:26.381Z,101519.91
2023-08-23T15:58:53.454Z,101520.44
2023-08-23T16:01:22.560Z,101513.66
2023-08-23T16:03:49.909Z,101518.94
2023-08-23T16:06:17.047Z,101513.94
2023-08-23T16:08:44.287Z,101521.31
2023-08-23T16:11:11.987Z,101520.25
2023-08-23T16:13:39.409Z,101516.00
2023-08-23T16:16:06.600Z,101513.97
2023-08-23T16:18:35.483Z,101515.41
2023-08-23T16:21:02.774Z,101524.94
2023-08-23T16:23:32.376Z,101515.72
2023-08-23T16:25:59.640Z,101518.66
2023-08-23T16:28:26.946Z,101513.00
2023-08-23T16:30:54.014Z,101507.66
2023-08-23T16:33:21.601Z,101508.47
2023-08-23T16:35:50.224Z,101516.16
2023-08-23T16:38:17.485Z,101512.13
2023-08-23T16:40:44.920Z,101513.44
2023-08-23T16:43:12.224Z,101517.66
2023-08-23T16:45:39.305Z,101509.94
2023-08-23T16:48:06.835Z,101513.72
2023-08-23T16:50:34.256Z,101509.94
2023-08-23T16:53:02.780Z,101507.25
2023-08-23T16:55:34.285Z,101509.34
2023-08-23T16:58:01.771Z,101506.94
2023-08-23T17:00:29.111Z,101497.66
2023-08-23T17:02:56.283Z,101498.38
2023-08-23T17:05:23.615Z,101503.31
2023-08-23T17:07:51.169Z,101514.16
2023-08-23T17:10:20.312Z,101510.16
2023-08-23T17:12:47.978Z,101504.56
2023-08-23T17:15:15.576Z,101500.72
2023-08-23T17:17:42.896Z,101503.53
2023-08-23T17:20:10.410Z,101505.94
2023-08-23T17:22:37.695Z,101506.16
2023-08-23T17:25:05.053Z,101503.47
2023-08-23T17:27:33.626Z,101500.63
2023-08-23T17:30:00.963Z,101512.38
2023-08-23T17:32:28.297Z,101513.53
2023-08-23T17:34:55.394Z,101517.06
2023-08-23T17:37:22.688Z,101522.84
2023-08-23T17:39:49.776Z,101516.03
2023-08-23T17:42:16.998Z,101516.47
2023-08-23T17:44:45.703Z,101518.88
2023-08-23T17:47:12.926Z,101509.94
2023-08-23T17:49:40.236Z,101507.53
2023-08-23T17:52:07.640Z,101514.91
2023-08-23T17:54:34.929Z,101504.94
2023-08-23T17:57:02.109Z,101510.66
2023-08-23T17:59:29.472Z,101509.47
2023-08-23T18:01:58.157Z,101511.41
2023-08-23T18:04:26.482Z,101511.22
2023-08-23T18:06:53.820Z,101514.13
2023-08-23T18:09:21.136Z,101521.63
2023-08-23T18:11:48.434Z,101526.69
2023-08-23T18:14:15.693Z,101525.03
2023-08-23T18:16:43.005Z,101532.53
2023-08-23T18:19:11.731Z,101537.13
2023-08-23T18:21:39.057Z,101533.41
2023-08-23T18:24:06.415Z,101537.59
2023-08-23T18:26:33.654Z,101540.31
2023-08-23T18:29:01.029Z,101541.31
2023-08-23T18:31:28.336Z,101545.91
2023-08-23T18:33:55.654Z,101542.16
2023-08-23T18:36:26.613Z,101546.53
2023-08-23T18:38:53.871Z,101543.41
2023-08-23T18:41:21.097Z,101549.22
2023-08-23T18:43:48.375Z,101546.09
2023-08-23T18:46:15.712Z,101552.56
2023-08-23T18:48:43.093Z,101553.34
2023-08-23T18:51:10.368Z,101553.53
2023-08-23T18:53:39.023Z,101555.81
2023-08-23T18:56:06.264Z,101547.41
2023-08-23T18:58:33.548Z,101550.31
2023-08-23T19:01:00.891Z,101551.97
2023-08-23T19:03:28.288Z,101552.75
2023-08-23T19:05:55.823Z,101550.44
2023-08-23T19:08:23.072Z,101556.44
2023-08-23T19:10:51.790Z,101562.63
2023-08-23T19:13:19.071Z,101570.53
2023-08-23T19:15:46.332Z,101567.00
2023-08-23T19:18:13.624Z,101571.78
2023-08-23T19:20:40.950Z,101572.03
2023-08-23T19:23:08.236Z,101567.66
2023-08-23T19:25:35.938Z,101571.41
2023-08-23T19:28:05.489Z,101568.63
2023-08-23T19:30:32.762Z,101569.19
2023-08-23T19:33:00.124Z,101572.28
2023-08-23T19:35:40.268Z,101573.56
2023-08-23T19:38:07.562Z,101574.19
2023-08-23T19:40:34.779Z,101575.34
2023-08-23T19:43:02.145Z,101579.63
2023-08-23T19:45:30.756Z,101578.16
2023-08-23T19:47:58.557Z,101583.56
2023-08-23T19:50:25.979Z,101575.63
2023-08-23T19:52:53.271Z,101574.84
2023-08-23T19:55:20.502Z,101572.06
2023-08-23T19:57:48.262Z,101572.84
2023-08-23T20:00:15.946Z,101575.06
2023-08-23T20:02:44.547Z,101572.50
2023-08-23T20:05:13.042Z,101569.16
2023-08-23T20:07:41.669Z,101577.41
2023-08-23T20:10:09.265Z,101568.22
2023-08-23T20:12:37.022Z,101572.72
2023-08-23T20:15:05.912Z,101572.47
2023-08-23T20:17:33.389Z,101570.59
2023-08-23T20:20:02.486Z,101563.97
2023-08-23T20:22:29.800Z,101568.44
2023-08-23T20:24:57.071Z,101564.25
2023-08-23T20:27:24.509Z,101565.75
2023-08-23T20:29:51.894Z,101563.31
2023-08-23T20:32:20.062Z,101574.41
2023-08-23T20:34:47.308Z,101572.34
2023-08-23T20:37:15.862Z,101569.19
2023-08-23T20:39:43.116Z,101568.78
2023-08-23T20:42:10.458Z,101577.88
2023-08-23T20:44:39.030Z,101577.88
2023-08-23T20:47:06.639Z,101578.59
2023-08-23T20:49:34.988Z,101581.03
2023-08-23T20:52:03.006Z,101580.47
2023-08-23T20:54:31.808Z,101584.41
2023-08-23T20:56:59.155Z,101585.25
2023-08-23T20:59:26.440Z,101594.13
2023-08-23T21:01:53.689Z,101584.75
2023-08-23T21:04:20.980Z,101592.53
2023-08-23T21:06:48.282Z,101589.84
2023-08-23T21:09:15.600Z,101591.44
2023-08-23T21:11:44.353Z,101588.44
2023-08-23T21:14:12.285Z,101589.63
2023-08-23T21:16:39.642Z,101593.50
2023-08-23T21:19:07.009Z,101585.81
2023-08-23T21:21:34.491Z,101592.03
2023-08-23T21:24:01.806Z,101594.53
2023-08-23T21:26:29.126Z,101595.91
2023-08-23T21:28:57.758Z,101598.19
2023-08-23T21:31:25.105Z,101599.03
2023-08-23T21:33:52.746Z,101607.63
2023-08-23T21:36:20.022Z,101601.75
2023-08-23T21:38:47.305Z,101606.16
2023-08-23T21:41:14.604Z,101603.03
2023-08-23T21:43:41.912Z,101600.78
2023-08-23T21:46:10.630Z,101604.22
2023-08-23T21:48:38.020Z,101603.91
2023-08-23T21:51:05.704Z,101606.09
2023-08-23T21:53:32.963Z,101599.22
2023-08-23T21:56:00.506Z,101596.03
2023-08-23T21:58:29.344Z,101592.88
2023-08-23T22:00:58.197Z,101594.06
2023-08-23T22:03:31.170Z,101602.69
2023-08-23T22:05:59.846Z,101598.59
2023-08-23T22:08:27.099Z,101598.44
2023-08-23T22:10:54.432Z,101596.00
2023-08-23T22:13:21.700Z,101592.81
2023-08-23T22:15:49.097Z,101597.88
2023-08-23T22:18:16.471Z,101588.66
2023-08-23T22:20:45.162Z,101592.00
2023-08-23T22:23:12.409Z,101586.97
2023-08-23T22:25:39.693Z,101598.28
2023-08-23T22:28:07.212Z,101598.63
2023-08-23T22:30:34.469Z,101578.84
2023-08-23T22:33:01.988Z,101591.59
2023-08-23T22:35:29.265Z,101591.28
2023-08-23T22:37:57.877Z,101587.56
2023-08-23T22:40:25.258Z,101588.63
2023-08-23T22:42:52.541Z,101592.16
2023-08-23T22:45:21.026Z,101596.34
2023-08-23T22:47:48.705Z,101589.13
2023-08-23T22:50:16.204Z,101595.38
2023-08-23T22:52:43.785Z,101584.00
2023-08-23T22:55:12.513Z,101591.69
2023-08-23T22:57:42.076Z,101594.69
2023-08-23T23:00:10.621Z,101588.34
2023-08-23T23:02:38.248Z,101587.66
2023-08-23T23:05:06.416Z,101591.03
2023-08-23T23:07:34.110Z,101595.84
2023-08-23T23:10:02.197Z,101592.16
2023-08-23T23:12:30.991Z,101595.03
2023-08-23T23:14:58.282Z,101583.81
2023-08-23T23:17:25.680Z,101591.34
2023-08-23T23:19:52.932Z,101576.63
2023-08-23T23:22:20.210Z,101584.81
2023-08-23T23:24:47.538Z,101592.88
2023-08-23T23:27:14.841Z,101587.00
2023-08-23T23:29:43.516Z,101582.31
2023-08-23T23:32:10.803Z,101587.38
2023-08-23T23:34:38.060Z,101592.72
2023-08-23T23:37:05.410Z,101588.34
2023-08-23T23:39:32.745Z,101588.72
2023-08-23T23:42:00.087Z,101582.66
2023-08-23T23:44:27.432Z,101588.53
2023-08-23T23:46:58.779Z,101593.53
2023-08-23T23:49:26.411Z,101584.19
2023-08-23T23:51:53.651Z,101580.66
2023-08-23T23:54:21.092Z,101585.34
2023-08-23T23:56:48.328Z,101587.72
2023-08-23T23:59:15.621Z,101590.72
